sensor_id;sensor_type;location;lat;lon;timestamp;temperature;humidity
22781;DHT22;11557;50.884;4.322;2022-10-31T00:02:24;17.20;99.90
22781;DHT22;11557;50.884;4.322;2022-10-31T00:04:49;17.20;99.90
22781;DHT22;11557;50.884;4.322;2022-10-31T00:07:15;17.20;99.90
22781;DHT22;11557;50.884;4.322;2022-10-31T00:09:40;17.00;99.90
22781;DHT22;11557;50.884;4.322;2022-10-31T00:12:06;16.80;99.90
22781;DHT22;11557;50.884;4.322;2022-10-31T00:14:31;16.80;99.90
22781;DHT22;11557;50.884;4.322;2022-10-31T00:16:57;16.90;99.90
22781;DHT22;11557;50.884;4.322;2022-10-31T00:19:23;17.00;99.90
22781;DHT22;11557;50.884;4.322;2022-10-31T00:21:48;17.10;99.90
22781;DHT22;11557;50.884;4.322;2022-10-31T00:24:16;17.00;99.90
22781;DHT22;11557;50.884;4.322;2022-10-31T00:26:42;17.10;99.90
22781;DHT22;11557;50.884;4.322;2022-10-31T00:29:07;17.00;99.90
22781;DHT22;11557;50.884;4.322;2022-10-31T00:31:33;17.00;99.90
22781;DHT22;11557;50.884;4.322;2022-10-31T00:33:58;17.00;99.90
22781;DHT22;11557;50.884;4.322;2022-10-31T00:36:24;16.90;99.90
22781;DHT22;11557;50.884;4.322;2022-10-31T00:38:49;16.60;99.90
22781;DHT22;11557;50.884;4.322;2022-10-31T00:41:16;16.60;99.90
22781;DHT22;11557;50.884;4.322;2022-10-31T00:43:43;16.60;99.90
22781;DHT22;11557;50.884;4.322;2022-10-31T00:46:10;16.70;99.90
22781;DHT22;11557;50.884;4.322;2022-10-31T00:48:35;16.60;99.90
22781;DHT22;11557;50.884;4.322;2022-10-31T00:51:01;16.60;99.90
22781;DHT22;11557;50.884;4.322;2022-10-31T00:53:26;16.40;99.90
22781;DHT22;11557;50.884;4.322;2022-10-31T00:55:52;16.40;99.90
22781;DHT22;11557;50.884;4.322;2022-10-31T00:58:18;16.40;99.90
22781;DHT22;11557;50.884;4.322;2022-10-31T01:00:43;16.40;99.90
22781;DHT22;11557;50.884;4.322;2022-10-31T01:03:09;16.30;99.90
22781;DHT22;11557;50.884;4.322;2022-10-31T01:05:35;16.50;99.90
22781;DHT22;11557;50.884;4.322;2022-10-31T01:08:00;16.60;99.90
22781;DHT22;11557;50.884;4.322;2022-10-31T01:10:26;16.10;99.90
22781;DHT22;11557;50.884;4.322;2022-10-31T01:12:51;16.10;99.90
22781;DHT22;11557;50.884;4.322;2022-10-31T01:15:20;16.30;99.90
22781;DHT22;11557;50.884;4.322;2022-10-31T01:17:46;16.20;99.90
22781;DHT22;11557;50.884;4.322;2022-10-31T01:20:13;16.30;99.90
22781;DHT22;11557;50.884;4.322;2022-10-31T01:22:39;16.40;99.90
22781;DHT22;11557;50.884;4.322;2022-10-31T01:25:06;16.30;99.90
22781;DHT22;11557;50.884;4.322;2022-10-31T01:27:32;16.20;99.90
22781;DHT22;11557;50.884;4.322;2022-10-31T01:29:58;16.20;99.90
22781;DHT22;11557;50.884;4.322;2022-10-31T01:32:23;16.30;99.90
22781;DHT22;11557;50.884;4.322;2022-10-31T01:34:49;16.20;99.90
22781;DHT22;11557;50.884;4.322;2022-10-31T01:37:15;16.00;99.90
22781;DHT22;11557;50.884;4.322;2022-10-31T01:39:41;15.80;99.90
22781;DHT22;11557;50.884;4.322;2022-10-31T01:42:06;15.90;99.90
22781;DHT22;11557;50.884;4.322;2022-10-31T01:47:19;15.80;99.90
22781;DHT22;11557;50.884;4.322;2022-10-31T01:49:52;16.10;99.90
22781;DHT22;11557;50.884;4.322;2022-10-31T01:54:54;16.10;99.90
22781;DHT22;11557;50.884;4.322;2022-10-31T01:57:22;15.90;99.90
22781;DHT22;11557;50.884;4.322;2022-10-31T01:59:50;16.00;99.90
22781;DHT22;11557;50.884;4.322;2022-10-31T02:02:18;16.00;99.90
22781;DHT22;11557;50.884;4.322;2022-10-31T02:04:45;16.10;99.90
22781;DHT22;11557;50.884;4.322;2022-10-31T02:07:18;16.00;99.90
22781;DHT22;11557;50.884;4.322;2022-10-31T02:09:45;15.80;99.90
22781;DHT22;11557;50.884;4.322;2022-10-31T02:12:13;15.80;99.90
22781;DHT22;11557;50.884;4.322;2022-10-31T02:14:39;15.80;99.90
22781;DHT22;11557;50.884;4.322;2022-10-31T02:17:05;15.50;99.90
22781;DHT22;11557;50.884;4.322;2022-10-31T02:30:20;16.00;99.90
22781;DHT22;11557;50.884;4.322;2022-10-31T02:32:56;15.90;99.90
22781;DHT22;11557;50.884;4.322;2022-10-31T02:38:24;15.80;99.90
22781;DHT22;11557;50.884;4.322;2022-10-31T02:41:01;15.50;99.90
22781;DHT22;11557;50.884;4.322;2022-10-31T02:43:43;15.40;99.90
22781;DHT22;11557;50.884;4.322;2022-10-31T02:49:34;15.40;99.90
22781;DHT22;11557;50.884;4.322;2022-10-31T02:52:01;15.60;99.90
22781;DHT22;11557;50.884;4.322;2022-10-31T02:54:27;15.80;99.90
22781;DHT22;11557;50.884;4.322;2022-10-31T02:56:59;15.90;99.90
22781;DHT22;11557;50.884;4.322;2022-10-31T02:59:29;15.90;99.90
22781;DHT22;11557;50.884;4.322;2022-10-31T03:05:23;15.80;99.90
22781;DHT22;11557;50.884;4.322;2022-10-31T03:08:00;15.60;99.90
22781;DHT22;11557;50.884;4.322;2022-10-31T03:11:01;15.40;99.90
22781;DHT22;11557;50.884;4.322;2022-10-31T03:13:46;15.40;99.90
22781;DHT22;11557;50.884;4.322;2022-10-31T03:16:14;15.60;99.90
22781;DHT22;11557;50.884;4.322;2022-10-31T03:18:49;15.40;99.90
22781;DHT22;11557;50.884;4.322;2022-10-31T03:21:26;15.20;99.90
22781;DHT22;11557;50.884;4.322;2022-10-31T03:23:53;15.40;99.90
22781;DHT22;11557;50.884;4.322;2022-10-31T03:26:21;15.20;99.90
22781;DHT22;11557;50.884;4.322;2022-10-31T03:28:54;15.00;99.90
22781;DHT22;11557;50.884;4.322;2022-10-31T03:31:26;15.00;99.90
22781;DHT22;11557;50.884;4.322;2022-10-31T03:33:54;15.20;99.90
22781;DHT22;11557;50.884;4.322;2022-10-31T03:36:22;15.10;99.90
22781;DHT22;11557;50.884;4.322;2022-10-31T03:38:48;14.90;99.90
22781;DHT22;11557;50.884;4.322;2022-10-31T03:41:21;15.00;99.90
22781;DHT22;11557;50.884;4.322;2022-10-31T03:43:57;15.00;99.90
22781;DHT22;11557;50.884;4.322;2022-10-31T03:46:24;15.00;99.90
22781;DHT22;11557;50.884;4.322;2022-10-31T03:48:50;16.10;99.90
22781;DHT22;11557;50.884;4.322;2022-10-31T03:51:25;15.10;99.90
22781;DHT22;11557;50.884;4.322;2022-10-31T03:54:16;15.00;99.90
22781;DHT22;11557;50.884;4.322;2022-10-31T03:56:50;15.00;99.90
22781;DHT22;11557;50.884;4.322;2022-10-31T03:59:36;15.10;99.90
22781;DHT22;11557;50.884;4.322;2022-10-31T04:02:07;15.30;99.90
22781;DHT22;11557;50.884;4.322;2022-10-31T04:04:37;15.20;99.90
22781;DHT22;11557;50.884;4.322;2022-10-31T04:07:04;15.00;99.90
22781;DHT22;11557;50.884;4.322;2022-10-31T04:09:33;14.90;99.90
22781;DHT22;11557;50.884;4.322;2022-10-31T04:12:02;15.10;99.90
22781;DHT22;11557;50.884;4.322;2022-10-31T04:14:29;15.10;99.90
22781;DHT22;11557;50.884;4.322;2022-10-31T04:16:57;16.40;99.90
22781;DHT22;11557;50.884;4.322;2022-10-31T04:19:22;15.60;99.90
22781;DHT22;11557;50.884;4.322;2022-10-31T04:21:48;15.50;99.90
22781;DHT22;11557;50.884;4.322;2022-10-31T04:24:14;15.20;99.90
22781;DHT22;11557;50.884;4.322;2022-10-31T04:26:39;15.20;99.90
22781;DHT22;11557;50.884;4.322;2022-10-31T04:29:05;15.30;99.90
22781;DHT22;11557;50.884;4.322;2022-10-31T04:31:30;15.40;99.90
22781;DHT22;11557;50.884;4.322;2022-10-31T04:33:56;15.30;99.90
22781;DHT22;11557;50.884;4.322;2022-10-31T04:36:22;15.00;99.90
22781;DHT22;11557;50.884;4.322;2022-10-31T04:38:47;15.60;99.90
22781;DHT22;11557;50.884;4.322;2022-10-31T04:41:13;15.10;99.90
22781;DHT22;11557;50.884;4.322;2022-10-31T04:43:38;15.00;99.90
22781;DHT22;11557;50.884;4.322;2022-10-31T04:46:04;15.80;99.90
22781;DHT22;11557;50.884;4.322;2022-10-31T04:48:30;14.80;99.90
22781;DHT22;11557;50.884;4.322;2022-10-31T04:50:59;15.10;99.90
22781;DHT22;11557;50.884;4.322;2022-10-31T04:53:25;15.00;99.90
22781;DHT22;11557;50.884;4.322;2022-10-31T04:55:51;15.10;99.90
22781;DHT22;11557;50.884;4.322;2022-10-31T04:58:17;15.00;99.90
22781;DHT22;11557;50.884;4.322;2022-10-31T05:00:42;14.70;99.90
22781;DHT22;11557;50.884;4.322;2022-10-31T05:03:08;14.70;99.90
22781;DHT22;11557;50.884;4.322;2022-10-31T05:05:33;14.90;99.90
22781;DHT22;11557;50.884;4.322;2022-10-31T05:07:59;15.10;99.90
22781;DHT22;11557;50.884;4.322;2022-10-31T05:10:27;15.30;99.90
22781;DHT22;11557;50.884;4.322;2022-10-31T05:12:59;15.40;99.90
22781;DHT22;11557;50.884;4.322;2022-10-31T05:15:26;15.50;99.90
22781;DHT22;11557;50.884;4.322;2022-10-31T05:17:52;15.30;99.90
22781;DHT22;11557;50.884;4.322;2022-10-31T05:20:19;15.40;99.90
22781;DHT22;11557;50.884;4.322;2022-10-31T05:22:47;15.30;99.90
22781;DHT22;11557;50.884;4.322;2022-10-31T05:25:13;14.80;99.90
22781;DHT22;11557;50.884;4.322;2022-10-31T05:27:43;14.90;99.90
22781;DHT22;11557;50.884;4.322;2022-10-31T05:30:11;14.70;99.90
22781;DHT22;11557;50.884;4.322;2022-10-31T05:32:41;14.60;99.90
22781;DHT22;11557;50.884;4.322;2022-10-31T05:35:08;14.80;99.90
22781;DHT22;11557;50.884;4.322;2022-10-31T05:37:35;15.00;99.90
22781;DHT22;11557;50.884;4.322;2022-10-31T05:40:05;15.00;99.90
22781;DHT22;11557;50.884;4.322;2022-10-31T05:42:31;15.00;99.90
22781;DHT22;11557;50.884;4.322;2022-10-31T05:44:57;15.00;99.90
22781;DHT22;11557;50.884;4.322;2022-10-31T05:47:24;15.00;99.90
22781;DHT22;11557;50.884;4.322;2022-10-31T05:49:50;15.20;99.90
22781;DHT22;11557;50.884;4.322;2022-10-31T05:52:15;15.20;99.90
22781;DHT22;11557;50.884;4.322;2022-10-31T05:54:41;15.20;99.90
22781;DHT22;11557;50.884;4.322;2022-10-31T05:57:07;15.30;99.90
22781;DHT22;11557;50.884;4.322;2022-10-31T05:59:32;15.20;99.90
22781;DHT22;11557;50.884;4.322;2022-10-31T06:01:58;15.40;99.90
22781;DHT22;11557;50.884;4.322;2022-10-31T06:04:23;15.40;99.90
22781;DHT22;11557;50.884;4.322;2022-10-31T06:06:49;15.30;99.90
22781;DHT22;11557;50.884;4.322;2022-10-31T06:09:15;15.20;99.90
22781;DHT22;11557;50.884;4.322;2022-10-31T06:11:40;15.30;99.90
22781;DHT22;11557;50.884;4.322;2022-10-31T06:14:06;15.30;99.90
22781;DHT22;11557;50.884;4.322;2022-10-31T06:16:32;15.30;99.90
22781;DHT22;11557;50.884;4.322;2022-10-31T06:18:57;16.30;99.90
22781;DHT22;11557;50.884;4.322;2022-10-31T06:21:23;15.30;99.90
22781;DHT22;11557;50.884;4.322;2022-10-31T06:23:48;15.50;99.90
22781;DHT22;11557;50.884;4.322;2022-10-31T06:26:14;15.50;99.90
22781;DHT22;11557;50.884;4.322;2022-10-31T06:28:40;15.60;99.90
22781;DHT22;11557;50.884;4.322;2022-10-31T06:31:05;15.60;99.90
22781;DHT22;11557;50.884;4.322;2022-10-31T06:33:31;15.50;99.90
22781;DHT22;11557;50.884;4.322;2022-10-31T06:35:57;15.50;99.90
22781;DHT22;11557;50.884;4.322;2022-10-31T06:38:22;15.50;99.90
22781;DHT22;11557;50.884;4.322;2022-10-31T06:40:48;15.50;99.90
22781;DHT22;11557;50.884;4.322;2022-10-31T06:43:13;15.50;99.90
22781;DHT22;11557;50.884;4.322;2022-10-31T06:45:40;15.60;99.90
22781;DHT22;11557;50.884;4.322;2022-10-31T06:48:06;15.60;99.90
22781;DHT22;11557;50.884;4.322;2022-10-31T06:50:32;16.30;99.90
22781;DHT22;11557;50.884;4.322;2022-10-31T06:52:59;15.70;99.90
22781;DHT22;11557;50.884;4.322;2022-10-31T06:55:26;15.70;99.90
22781;DHT22;11557;50.884;4.322;2022-10-31T06:57:52;15.70;99.90
22781;DHT22;11557;50.884;4.322;2022-10-31T07:00:18;15.80;99.90
22781;DHT22;11557;50.884;4.322;2022-10-31T07:05:20;15.80;99.90
22781;DHT22;11557;50.884;4.322;2022-10-31T07:07:46;15.70;99.90
22781;DHT22;11557;50.884;4.322;2022-10-31T07:10:12;15.70;99.90
22781;DHT22;11557;50.884;4.322;2022-10-31T07:12:37;15.80;99.90
22781;DHT22;11557;50.884;4.322;2022-10-31T07:15:03;15.80;99.90
22781;DHT22;11557;50.884;4.322;2022-10-31T07:17:29;15.80;99.90
22781;DHT22;11557;50.884;4.322;2022-10-31T07:19:56;15.80;99.90
22781;DHT22;11557;50.884;4.322;2022-10-31T07:22:21;15.80;99.90
22781;DHT22;11557;50.884;4.322;2022-10-31T07:24:47;15.80;99.90
22781;DHT22;11557;50.884;4.322;2022-10-31T07:27:12;15.90;99.90
22781;DHT22;11557;50.884;4.322;2022-10-31T07:29:38;15.80;99.90
22781;DHT22;11557;50.884;4.322;2022-10-31T07:32:03;15.90;99.90
22781;DHT22;11557;50.884;4.322;2022-10-31T07:34:29;15.90;99.90
22781;DHT22;11557;50.884;4.322;2022-10-31T07:36:55;16.00;99.90
22781;DHT22;11557;50.884;4.322;2022-10-31T07:39:20;16.00;99.90
22781;DHT22;11557;50.884;4.322;2022-10-31T07:41:46;16.20;99.90
22781;DHT22;11557;50.884;4.322;2022-10-31T07:44:12;16.60;99.90
22781;DHT22;11557;50.884;4.322;2022-10-31T07:46:37;16.20;99.90
22781;DHT22;11557;50.884;4.322;2022-10-31T07:49:03;16.20;99.90
22781;DHT22;11557;50.884;4.322;2022-10-31T07:51:29;16.20;99.90
22781;DHT22;11557;50.884;4.322;2022-10-31T07:53:55;16.20;99.90
22781;DHT22;11557;50.884;4.322;2022-10-31T07:56:20;16.20;99.90
22781;DHT22;11557;50.884;4.322;2022-10-31T07:58:46;16.20;99.90
22781;DHT22;11557;50.884;4.322;2022-10-31T08:01:11;16.30;99.90
22781;DHT22;11557;50.884;4.322;2022-10-31T08:03:37;16.20;99.90
22781;DHT22;11557;50.884;4.322;2022-10-31T08:06:03;16.00;99.90
22781;DHT22;11557;50.884;4.322;2022-10-31T08:08:29;16.20;99.90
22781;DHT22;11557;50.884;4.322;2022-10-31T08:10:58;16.30;99.90
22781;DHT22;11557;50.884;4.322;2022-10-31T08:13:23;16.40;99.90
22781;DHT22;11557;50.884;4.322;2022-10-31T08:15:49;16.40;99.90
22781;DHT22;11557;50.884;4.322;2022-10-31T08:18:17;16.40;99.90
22781;DHT22;11557;50.884;4.322;2022-10-31T08:20:43;16.50;99.90
22781;DHT22;11557;50.884;4.322;2022-10-31T08:23:11;16.60;99.90
22781;DHT22;11557;50.884;4.322;2022-10-31T08:25:37;16.70;99.90
22781;DHT22;11557;50.884;4.322;2022-10-31T08:28:03;16.80;99.90
22781;DHT22;11557;50.884;4.322;2022-10-31T08:30:31;16.80;99.90
22781;DHT22;11557;50.884;4.322;2022-10-31T08:35:23;16.90;99.90
22781;DHT22;11557;50.884;4.322;2022-10-31T08:37:53;16.90;99.90
22781;DHT22;11557;50.884;4.322;2022-10-31T08:40:20;17.00;99.90
22781;DHT22;11557;50.884;4.322;2022-10-31T08:42:45;16.90;99.90
22781;DHT22;11557;50.884;4.322;2022-10-31T08:45:12;16.90;99.90
22781;DHT22;11557;50.884;4.322;2022-10-31T08:47:37;17.00;99.90
22781;DHT22;11557;50.884;4.322;2022-10-31T08:50:03;17.00;99.90
22781;DHT22;11557;50.884;4.322;2022-10-31T08:52:29;17.10;99.90
22781;DHT22;11557;50.884;4.322;2022-10-31T08:54:54;17.10;99.90
22781;DHT22;11557;50.884;4.322;2022-10-31T08:57:21;17.30;99.90
22781;DHT22;11557;50.884;4.322;2022-10-31T08:59:47;17.30;99.90
22781;DHT22;11557;50.884;4.322;2022-10-31T09:02:12;17.40;99.90
22781;DHT22;11557;50.884;4.322;2022-10-31T09:04:38;17.40;99.90
22781;DHT22;11557;50.884;4.322;2022-10-31T09:07:04;17.40;99.90
22781;DHT22;11557;50.884;4.322;2022-10-31T09:09:29;17.80;99.90
22781;DHT22;11557;50.884;4.322;2022-10-31T09:11:55;17.50;99.90
22781;DHT22;11557;50.884;4.322;2022-10-31T09:14:20;18.00;99.90
22781;DHT22;11557;50.884;4.322;2022-10-31T09:16:46;17.70;99.90
22781;DHT22;11557;50.884;4.322;2022-10-31T09:19:12;17.70;99.90
22781;DHT22;11557;50.884;4.322;2022-10-31T09:21:38;17.70;99.90
22781;DHT22;11557;50.884;4.322;2022-10-31T09:24:04;17.80;99.90
22781;DHT22;11557;50.884;4.322;2022-10-31T09:26:29;17.80;99.90
22781;DHT22;11557;50.884;4.322;2022-10-31T09:28:56;17.80;99.90
22781;DHT22;11557;50.884;4.322;2022-10-31T09:31:23;17.80;99.90
22781;DHT22;11557;50.884;4.322;2022-10-31T09:33:48;17.70;99.90
22781;DHT22;11557;50.884;4.322;2022-10-31T09:36:14;17.70;99.90
22781;DHT22;11557;50.884;4.322;2022-10-31T09:38:40;17.70;99.90
22781;DHT22;11557;50.884;4.322;2022-10-31T09:49:08;17.70;99.90
22781;DHT22;11557;50.884;4.322;2022-10-31T09:51:53;17.70;99.90
22781;DHT22;11557;50.884;4.322;2022-10-31T09:54:36;17.70;99.90
22781;DHT22;11557;50.884;4.322;2022-10-31T09:57:03;17.70;99.90
22781;DHT22;11557;50.884;4.322;2022-10-31T09:59:38;17.80;99.90
22781;DHT22;11557;50.884;4.322;2022-10-31T10:09:37;18.10;99.90
22781;DHT22;11557;50.884;4.322;2022-10-31T10:12:15;18.20;99.90
22781;DHT22;11557;50.884;4.322;2022-10-31T10:18:18;18.40;99.90
22781;DHT22;11557;50.884;4.322;2022-10-31T10:23:45;18.50;99.90
22781;DHT22;11557;50.884;4.322;2022-10-31T10:26:18;18.70;99.90
22781;DHT22;11557;50.884;4.322;2022-10-31T10:28:49;18.80;99.90
22781;DHT22;11557;50.884;4.322;2022-10-31T10:31:23;18.90;99.90
22781;DHT22;11557;50.884;4.322;2022-10-31T10:36:37;19.10;99.90
22781;DHT22;11557;50.884;4.322;2022-10-31T10:39:11;19.10;99.90
22781;DHT22;11557;50.884;4.322;2022-10-31T10:41:43;19.10;99.90
22781;DHT22;11557;50.884;4.322;2022-10-31T10:44:10;19.10;99.90
22781;DHT22;11557;50.884;4.322;2022-10-31T10:46:44;19.10;99.90
22781;DHT22;11557;50.884;4.322;2022-10-31T10:57:55;18.90;99.90
22781;DHT22;11557;50.884;4.322;2022-10-31T11:00:48;18.90;99.90
22781;DHT22;11557;50.884;4.322;2022-10-31T11:03:16;18.90;99.90
22781;DHT22;11557;50.884;4.322;2022-10-31T11:05:48;19.00;99.90
22781;DHT22;11557;50.884;4.322;2022-10-31T11:08:29;19.00;99.90
22781;DHT22;11557;50.884;4.322;2022-10-31T11:10:59;19.10;99.90
22781;DHT22;11557;50.884;4.322;2022-10-31T11:13:25;19.10;99.90
22781;DHT22;11557;50.884;4.322;2022-10-31T11:16:06;19.10;99.90
22781;DHT22;11557;50.884;4.322;2022-10-31T11:18:36;19.80;99.90
22781;DHT22;11557;50.884;4.322;2022-10-31T11:21:04;19.20;99.90
22781;DHT22;11557;50.884;4.322;2022-10-31T11:23:31;19.30;99.90
22781;DHT22;11557;50.884;4.322;2022-10-31T11:26:05;19.30;99.90
22781;DHT22;11557;50.884;4.322;2022-10-31T11:28:33;19.40;99.90
22781;DHT22;11557;50.884;4.322;2022-10-31T11:31:12;19.50;99.90
22781;DHT22;11557;50.884;4.322;2022-10-31T11:33:49;19.60;99.90
22781;DHT22;11557;50.884;4.322;2022-10-31T11:36:27;19.60;99.90
22781;DHT22;11557;50.884;4.322;2022-10-31T11:38:54;19.70;99.90
22781;DHT22;11557;50.884;4.322;2022-10-31T11:41:34;19.80;99.90
22781;DHT22;11557;50.884;4.322;2022-10-31T11:44:05;19.70;99.90
22781;DHT22;11557;50.884;4.322;2022-10-31T11:46:52;19.80;99.90
22781;DHT22;11557;50.884;4.322;2022-10-31T11:51:57;19.80;99.90
22781;DHT22;11557;50.884;4.322;2022-10-31T11:54:32;19.80;99.90
22781;DHT22;11557;50.884;4.322;2022-10-31T11:56:58;19.80;99.90
22781;DHT22;11557;50.884;4.322;2022-10-31T11:59:30;19.90;99.90
22781;DHT22;11557;50.884;4.322;2022-10-31T12:01:59;19.90;99.90
22781;DHT22;11557;50.884;4.322;2022-10-31T12:04:47;19.90;99.90
22781;DHT22;11557;50.884;4.322;2022-10-31T12:07:14;19.90;99.90
22781;DHT22;11557;50.884;4.322;2022-10-31T12:09:40;20.10;99.90
22781;DHT22;11557;50.884;4.322;2022-10-31T12:18:11;20.10;99.90
22781;DHT22;11557;50.884;4.322;2022-10-31T12:26:30;20.30;99.90
22781;DHT22;11557;50.884;4.322;2022-10-31T12:29:21;20.30;99.90
22781;DHT22;11557;50.884;4.322;2022-10-31T12:32:15;20.30;99.90
22781;DHT22;11557;50.884;4.322;2022-10-31T12:34:52;20.40;99.90
22781;DHT22;11557;50.884;4.322;2022-10-31T12:40:07;20.40;99.90
22781;DHT22;11557;50.884;4.322;2022-10-31T12:43:02;20.30;99.90
22781;DHT22;11557;50.884;4.322;2022-10-31T12:51:57;20.20;99.90
22781;DHT22;11557;50.884;4.322;2022-10-31T13:00:12;20.50;99.90
22781;DHT22;11557;50.884;4.322;2022-10-31T13:02:57;20.40;99.90
22781;DHT22;11557;50.884;4.322;2022-10-31T13:05:33;20.40;99.90
22781;DHT22;11557;50.884;4.322;2022-10-31T13:08:16;20.50;99.90
22781;DHT22;11557;50.884;4.322;2022-10-31T13:10:50;20.40;99.90
22781;DHT22;11557;50.884;4.322;2022-10-31T13:13:32;20.40;99.90
22781;DHT22;11557;50.884;4.322;2022-10-31T13:16:05;20.50;99.90
22781;DHT22;11557;50.884;4.322;2022-10-31T13:18:38;20.50;99.90
22781;DHT22;11557;50.884;4.322;2022-10-31T13:21:18;20.50;99.90
22781;DHT22;11557;50.884;4.322;2022-10-31T13:23:48;20.60;99.90
22781;DHT22;11557;50.884;4.322;2022-10-31T13:31:43;20.40;99.90
22781;DHT22;11557;50.884;4.322;2022-10-31T13:34:25;20.30;99.90
22781;DHT22;11557;50.884;4.322;2022-10-31T13:37:14;20.30;99.90
22781;DHT22;11557;50.884;4.322;2022-10-31T13:45:25;20.50;99.90
22781;DHT22;11557;50.884;4.322;2022-10-31T13:50:41;20.40;99.90
22781;DHT22;11557;50.884;4.322;2022-10-31T13:53:34;20.40;99.90
22781;DHT22;11557;50.884;4.322;2022-10-31T13:59:04;20.10;99.90
22781;DHT22;11557;50.884;4.322;2022-10-31T14:01:28;20.20;99.90
22781;DHT22;11557;50.884;4.322;2022-10-31T14:04:02;20.20;99.90
22781;DHT22;11557;50.884;4.322;2022-10-31T14:07:04;20.20;99.90
22781;DHT22;11557;50.884;4.322;2022-10-31T14:09:35;20.20;99.90
22781;DHT22;11557;50.884;4.322;2022-10-31T14:12:07;20.20;99.90
22781;DHT22;11557;50.884;4.322;2022-10-31T14:14:40;20.20;99.90
22781;DHT22;11557;50.884;4.322;2022-10-31T14:17:26;20.20;99.90
22781;DHT22;11557;50.884;4.322;2022-10-31T14:22:41;20.20;99.90
22781;DHT22;11557;50.884;4.322;2022-10-31T14:25:30;20.20;99.90
22781;DHT22;11557;50.884;4.322;2022-10-31T14:27:57;20.10;99.90
22781;DHT22;11557;50.884;4.322;2022-10-31T14:30:25;20.20;99.90
22781;DHT22;11557;50.884;4.322;2022-10-31T14:33:15;20.10;99.90
22781;DHT22;11557;50.884;4.322;2022-10-31T14:36:07;20.40;99.90
22781;DHT22;11557;50.884;4.322;2022-10-31T14:49:12;19.90;99.90
22781;DHT22;11557;50.884;4.322;2022-10-31T14:51:45;19.90;99.90
22781;DHT22;11557;50.884;4.322;2022-10-31T14:54:15;20.00;99.90
22781;DHT22;11557;50.884;4.322;2022-10-31T14:56:53;19.90;99.90
22781;DHT22;11557;50.884;4.322;2022-10-31T14:59:28;19.90;99.90
22781;DHT22;11557;50.884;4.322;2022-10-31T15:02:13;20.00;99.90
22781;DHT22;11557;50.884;4.322;2022-10-31T15:04:40;19.80;99.90
22781;DHT22;11557;50.884;4.322;2022-10-31T15:07:21;19.90;99.90
22781;DHT22;11557;50.884;4.322;2022-10-31T15:10:15;19.90;99.90
22781;DHT22;11557;50.884;4.322;2022-10-31T15:12:43;19.90;99.90
22781;DHT22;11557;50.884;4.322;2022-10-31T15:15:16;19.90;99.90
22781;DHT22;11557;50.884;4.322;2022-10-31T15:17:51;19.90;99.90
22781;DHT22;11557;50.884;4.322;2022-10-31T15:20:20;19.80;99.90
22781;DHT22;11557;50.884;4.322;2022-10-31T15:22:47;19.60;99.90
22781;DHT22;11557;50.884;4.322;2022-10-31T15:25:21;19.50;99.90
22781;DHT22;11557;50.884;4.322;2022-10-31T15:27:51;19.40;99.90
22781;DHT22;11557;50.884;4.322;2022-10-31T15:30:29;19.40;99.90
22781;DHT22;11557;50.884;4.322;2022-10-31T15:32:55;19.30;99.90
22781;DHT22;11557;50.884;4.322;2022-10-31T15:35:28;19.30;99.90
22781;DHT22;11557;50.884;4.322;2022-10-31T15:37:56;19.10;99.90
22781;DHT22;11557;50.884;4.322;2022-10-31T15:40:24;18.90;99.90
22781;DHT22;11557;50.884;4.322;2022-10-31T15:42:53;19.00;99.90
22781;DHT22;11557;50.884;4.322;2022-10-31T15:45:23;19.10;99.90
22781;DHT22;11557;50.884;4.322;2022-10-31T15:47:57;19.10;99.90
22781;DHT22;11557;50.884;4.322;2022-10-31T15:50:34;19.00;99.90
22781;DHT22;11557;50.884;4.322;2022-10-31T15:53:01;19.00;99.90
22781;DHT22;11557;50.884;4.322;2022-10-31T15:55:29;19.00;99.90
22781;DHT22;11557;50.884;4.322;2022-10-31T15:58:09;19.00;99.90
22781;DHT22;11557;50.884;4.322;2022-10-31T16:00:37;19.00;99.90
22781;DHT22;11557;50.884;4.322;2022-10-31T16:05:52;18.90;99.90
22781;DHT22;11557;50.884;4.322;2022-10-31T16:13:30;18.80;99.90
22781;DHT22;11557;50.884;4.322;2022-10-31T16:16:01;18.80;99.90
22781;DHT22;11557;50.884;4.322;2022-10-31T16:18:29;18.60;99.90
22781;DHT22;11557;50.884;4.322;2022-10-31T16:20:56;18.70;99.90
22781;DHT22;11557;50.884;4.322;2022-10-31T16:23:24;18.60;99.90
22781;DHT22;11557;50.884;4.322;2022-10-31T16:25:51;18.50;99.90
22781;DHT22;11557;50.884;4.322;2022-10-31T16:28:22;18.50;99.90
22781;DHT22;11557;50.884;4.322;2022-10-31T16:30:54;18.40;99.90
22781;DHT22;11557;50.884;4.322;2022-10-31T16:35:49;18.30;99.90
22781;DHT22;11557;50.884;4.322;2022-10-31T16:38:15;18.30;99.90
22781;DHT22;11557;50.884;4.322;2022-10-31T16:40:41;18.20;99.90
22781;DHT22;11557;50.884;4.322;2022-10-31T16:43:14;18.20;99.90
22781;DHT22;11557;50.884;4.322;2022-10-31T16:45:48;18.30;99.90
22781;DHT22;11557;50.884;4.322;2022-10-31T16:48:21;18.20;99.90
22781;DHT22;11557;50.884;4.322;2022-10-31T16:50:49;18.10;99.90
22781;DHT22;11557;50.884;4.322;2022-10-31T16:53:15;18.10;99.90
22781;DHT22;11557;50.884;4.322;2022-10-31T16:55:54;18.00;99.90
22781;DHT22;11557;50.884;4.322;2022-10-31T16:58:25;18.00;99.90
22781;DHT22;11557;50.884;4.322;2022-10-31T17:00:53;17.90;99.90
22781;DHT22;11557;50.884;4.322;2022-10-31T17:03:19;17.90;99.90
22781;DHT22;11557;50.884;4.322;2022-10-31T17:05:45;17.80;99.90
22781;DHT22;11557;50.884;4.322;2022-10-31T17:08:11;17.80;99.90
22781;DHT22;11557;50.884;4.322;2022-10-31T17:10:37;17.80;99.90
22781;DHT22;11557;50.884;4.322;2022-10-31T17:13:06;17.90;99.90
22781;DHT22;11557;50.884;4.322;2022-10-31T17:15:42;17.80;99.90
22781;DHT22;11557;50.884;4.322;2022-10-31T17:18:12;17.90;99.90
22781;DHT22;11557;50.884;4.322;2022-10-31T17:20:37;17.70;99.90
22781;DHT22;11557;50.884;4.322;2022-10-31T17:23:03;17.80;99.90
22781;DHT22;11557;50.884;4.322;2022-10-31T17:25:31;17.70;99.90
22781;DHT22;11557;50.884;4.322;2022-10-31T17:27:57;17.70;99.90
22781;DHT22;11557;50.884;4.322;2022-10-31T17:30:24;17.70;99.90
22781;DHT22;11557;50.884;4.322;2022-10-31T17:32:51;17.60;99.90
22781;DHT22;11557;50.884;4.322;2022-10-31T17:35:27;17.60;99.90
22781;DHT22;11557;50.884;4.322;2022-10-31T17:37:53;17.60;99.90
22781;DHT22;11557;50.884;4.322;2022-10-31T17:40:20;17.70;99.90
22781;DHT22;11557;50.884;4.322;2022-10-31T17:42:53;17.70;99.90
22781;DHT22;11557;50.884;4.322;2022-10-31T17:45:20;17.70;99.90
22781;DHT22;11557;50.884;4.322;2022-10-31T17:47:51;17.80;99.90
22781;DHT22;11557;50.884;4.322;2022-10-31T17:50:21;17.80;99.90
22781;DHT22;11557;50.884;4.322;2022-10-31T17:52:49;17.70;99.90
22781;DHT22;11557;50.884;4.322;2022-10-31T17:55:18;17.70;99.90
22781;DHT22;11557;50.884;4.322;2022-10-31T17:57:44;17.70;99.90
22781;DHT22;11557;50.884;4.322;2022-10-31T18:00:13;17.70;99.90